sensor_id;sensor_type;location;lat;lon;timestamp;P1;durP1;ratioP1;P2;durP2;ratioP2
23304;SDS011;11821;51.456;8.844;2022-12-18T00:01:43;31.30;;;12.30;;
23304;SDS011;11821;51.456;8.844;2022-12-18T00:04:23;26.55;;;10.75;;
23304;SDS011;11821;51.456;8.844;2022-12-18T00:06:49;25.50;;;10.02;;
23304;SDS011;11821;51.456;8.844;2022-12-18T00:09:16;20.95;;;9.20;;
23304;SDS011;11821;51.456;8.844;2022-12-18T00:11:43;24.77;;;8.07;;
23304;SDS011;11821;51.456;8.844;2022-12-18T00:14:13;17.90;;;6.80;;
23304;SDS011;11821;51.456;8.844;2022-12-18T00:16:40;31.92;;;11.32;;
23304;SDS011;11821;51.456;8.844;2022-12-18T00:19:09;25.77;;;11.73;;
23304;SDS011;11821;51.456;8.844;2022-12-18T00:21:36;16.60;;;9.02;;
23304;SDS011;11821;51.456;8.844;2022-12-18T00:24:02;27.42;;;10.68;;
23304;SDS011;11821;51.456;8.844;2022-12-18T00:26:30;23.45;;;8.18;;
23304;SDS011;11821;51.456;8.844;2022-12-18T00:29:01;22.85;;;8.68;;
23304;SDS011;11821;51.456;8.844;2022-12-18T00:31:30;15.10;;;7.57;;
23304;SDS011;11821;51.456;8.844;2022-12-18T00:33:57;15.40;;;7.90;;
23304;SDS011;11821;51.456;8.844;2022-12-18T00:36:25;16.02;;;7.82;;
23304;SDS011;11821;51.456;8.844;2022-12-18T00:38:56;19.10;;;7.78;;
23304;SDS011;11821;51.456;8.844;2022-12-18T00:41:22;12.98;;;6.25;;
23304;SDS011;11821;51.456;8.844;2022-12-18T00:44:10;16.13;;;8.52;;
23304;SDS011;11821;51.456;8.844;2022-12-18T00:46:38;17.00;;;8.00;;
23304;SDS011;11821;51.456;8.844;2022-12-18T00:49:05;17.58;;;8.38;;
23304;SDS011;11821;51.456;8.844;2022-12-18T00:51:32;19.40;;;8.50;;
23304;SDS011;11821;51.456;8.844;2022-12-18T00:53:58;16.65;;;8.75;;
23304;SDS011;11821;51.456;8.844;2022-12-18T00:56:25;19.50;;;7.80;;
23304;SDS011;11821;51.456;8.844;2022-12-18T00:58:52;15.63;;;7.80;;
23304;SDS011;11821;51.456;8.844;2022-12-18T01:01:18;17.63;;;9.43;;
23304;SDS011;11821;51.456;8.844;2022-12-18T01:03:45;15.55;;;8.48;;
23304;SDS011;11821;51.456;8.844;2022-12-18T01:06:12;11.43;;;6.70;;
23304;SDS011;11821;51.456;8.844;2022-12-18T01:08:39;15.35;;;7.25;;
23304;SDS011;11821;51.456;8.844;2022-12-18T01:11:07;13.75;;;6.75;;
23304;SDS011;11821;51.456;8.844;2022-12-18T01:13:34;9.60;;;6.50;;
23304;SDS011;11821;51.456;8.844;2022-12-18T01:16:00;14.10;;;7.35;;
23304;SDS011;11821;51.456;8.844;2022-12-18T01:18:27;15.48;;;6.60;;
23304;SDS011;11821;51.456;8.844;2022-12-18T01:20:54;15.23;;;7.40;;
23304;SDS011;11821;51.456;8.844;2022-12-18T01:23:20;13.80;;;7.57;;
23304;SDS011;11821;51.456;8.844;2022-12-18T01:25:47;12.55;;;8.65;;
23304;SDS011;11821;51.456;8.844;2022-12-18T01:28:13;16.92;;;8.23;;
23304;SDS011;11821;51.456;8.844;2022-12-18T01:30:40;19.65;;;8.35;;
23304;SDS011;11821;51.456;8.844;2022-12-18T01:33:07;23.98;;;8.48;;
23304;SDS011;11821;51.456;8.844;2022-12-18T01:35:39;12.27;;;7.63;;
23304;SDS011;11821;51.456;8.844;2022-12-18T01:38:06;12.43;;;7.43;;
23304;SDS011;11821;51.456;8.844;2022-12-18T01:40:32;14.88;;;8.45;;
23304;SDS011;11821;51.456;8.844;2022-12-18T01:42:59;15.10;;;8.55;;
23304;SDS011;11821;51.456;8.844;2022-12-18T01:45:27;22.58;;;10.35;;
23304;SDS011;11821;51.456;8.844;2022-12-18T01:47:58;17.30;;;9.32;;
23304;SDS011;11821;51.456;8.844;2022-12-18T01:50:39;19.45;;;9.15;;
23304;SDS011;11821;51.456;8.844;2022-12-18T01:55:43;20.42;;;8.70;;
23304;SDS011;11821;51.456;8.844;2022-12-18T01:58:13;21.70;;;8.68;;
23304;SDS011;11821;51.456;8.844;2022-12-18T02:00:40;21.02;;;8.80;;
23304;SDS011;11821;51.456;8.844;2022-12-18T02:03:07;12.73;;;7.28;;
23304;SDS011;11821;51.456;8.844;2022-12-18T02:08:22;16.27;;;8.18;;
23304;SDS011;11821;51.456;8.844;2022-12-18T02:18:33;14.57;;;8.38;;
23304;SDS011;11821;51.456;8.844;2022-12-18T02:31:25;18.67;;;8.70;;
23304;SDS011;11821;51.456;8.844;2022-12-18T02:33:53;18.90;;;8.80;;
23304;SDS011;11821;51.456;8.844;2022-12-18T02:36:22;16.65;;;8.45;;
23304;SDS011;11821;51.456;8.844;2022-12-18T02:38:50;21.63;;;8.57;;
23304;SDS011;11821;51.456;8.844;2022-12-18T02:41:17;19.25;;;8.82;;
23304;SDS011;11821;51.456;8.844;2022-12-18T02:43:48;13.90;;;7.68;;
23304;SDS011;11821;51.456;8.844;2022-12-18T02:48:48;15.75;;;8.93;;
23304;SDS011;11821;51.456;8.844;2022-12-18T02:54:36;20.17;;;7.90;;
23304;SDS011;11821;51.456;8.844;2022-12-18T02:56:39;16.23;;;8.38;;
23304;SDS011;11821;51.456;8.844;2022-12-18T02:59:12;18.55;;;8.80;;
23304;SDS011;11821;51.456;8.844;2022-12-18T03:04:16;18.75;;;8.60;;
23304;SDS011;11821;51.456;8.844;2022-12-18T03:06:46;16.45;;;7.93;;
23304;SDS011;11821;51.456;8.844;2022-12-18T03:09:22;17.48;;;8.93;;
23304;SDS011;11821;51.456;8.844;2022-12-18T03:11:54;12.95;;;8.05;;
23304;SDS011;11821;51.456;8.844;2022-12-18T03:14:41;14.07;;;5.63;;
23304;SDS011;11821;51.456;8.844;2022-12-18T03:17:10;13.07;;;7.40;;
23304;SDS011;11821;51.456;8.844;2022-12-18T03:19:38;11.82;;;7.45;;
23304;SDS011;11821;51.456;8.844;2022-12-18T03:22:07;15.48;;;8.05;;
23304;SDS011;11821;51.456;8.844;2022-12-18T03:24:43;13.85;;;8.25;;
23304;SDS011;11821;51.456;8.844;2022-12-18T03:27:11;14.90;;;8.38;;
23304;SDS011;11821;51.456;8.844;2022-12-18T03:32:12;17.70;;;8.05;;
23304;SDS011;11821;51.456;8.844;2022-12-18T03:34:42;15.15;;;8.98;;
23304;SDS011;11821;51.456;8.844;2022-12-18T03:37:13;18.08;;;9.23;;
23304;SDS011;11821;51.456;8.844;2022-12-18T03:39:40;17.98;;;8.43;;
23304;SDS011;11821;51.456;8.844;2022-12-18T03:44:57;26.92;;;9.45;;
23304;SDS011;11821;51.456;8.844;2022-12-18T03:47:32;18.05;;;8.32;;
23304;SDS011;11821;51.456;8.844;2022-12-18T03:50:15;19.58;;;9.05;;
23304;SDS011;11821;51.456;8.844;2022-12-18T03:52:51;12.90;;;7.78;;
23304;SDS011;11821;51.456;8.844;2022-12-18T03:55:21;15.00;;;8.57;;
23304;SDS011;11821;51.456;8.844;2022-12-18T03:57:55;19.05;;;8.45;;
23304;SDS011;11821;51.456;8.844;2022-12-18T04:00:24;14.27;;;8.10;;
23304;SDS011;11821;51.456;8.844;2022-12-18T04:03:00;18.45;;;8.65;;
23304;SDS011;11821;51.456;8.844;2022-12-18T04:05:34;16.95;;;8.73;;
23304;SDS011;11821;51.456;8.844;2022-12-18T04:08:02;17.50;;;7.80;;
23304;SDS011;11821;51.456;8.844;2022-12-18T04:10:32;16.17;;;8.68;;
23304;SDS011;11821;51.456;8.844;2022-12-18T04:13:01;18.05;;;8.10;;
23304;SDS011;11821;51.456;8.844;2022-12-18T04:15:28;16.27;;;8.20;;
23304;SDS011;11821;51.456;8.844;2022-12-18T04:17:57;19.65;;;9.73;;
23304;SDS011;11821;51.456;8.844;2022-12-18T04:20:30;17.20;;;9.95;;
23304;SDS011;11821;51.456;8.844;2022-12-18T04:22:58;9.48;;;6.20;;
23304;SDS011;11821;51.456;8.844;2022-12-18T04:25:25;16.70;;;9.23;;
23304;SDS011;11821;51.456;8.844;2022-12-18T04:28:11;17.58;;;9.65;;
23304;SDS011;11821;51.456;8.844;2022-12-18T04:30:38;17.25;;;8.90;;
23304;SDS011;11821;51.456;8.844;2022-12-18T04:33:11;17.67;;;9.05;;
23304;SDS011;11821;51.456;8.844;2022-12-18T04:35:42;14.55;;;8.07;;
23304;SDS011;11821;51.456;8.844;2022-12-18T04:38:08;15.90;;;7.30;;
23304;SDS011;11821;51.456;8.844;2022-12-18T04:40:36;15.60;;;7.93;;
23304;SDS011;11821;51.456;8.844;2022-12-18T04:43:13;13.20;;;7.80;;
23304;SDS011;11821;51.456;8.844;2022-12-18T04:45:39;10.13;;;6.90;;
23304;SDS011;11821;51.456;8.844;2022-12-18T04:48:06;15.35;;;8.20;;
23304;SDS011;11821;51.456;8.844;2022-12-18T04:50:33;10.65;;;7.18;;
23304;SDS011;11821;51.456;8.844;2022-12-18T04:53:00;15.55;;;7.88;;
23304;SDS011;11821;51.456;8.844;2022-12-18T04:55:27;14.10;;;7.28;;
23304;SDS011;11821;51.456;8.844;2022-12-18T04:57:53;13.43;;;7.35;;
23304;SDS011;11821;51.456;8.844;2022-12-18T05:00:20;16.10;;;7.35;;
23304;SDS011;11821;51.456;8.844;2022-12-18T05:02:47;24.17;;;11.55;;
23304;SDS011;11821;51.456;8.844;2022-12-18T05:05:13;19.67;;;9.23;;
23304;SDS011;11821;51.456;8.844;2022-12-18T05:07:40;14.57;;;7.65;;
23304;SDS011;11821;51.456;8.844;2022-12-18T05:10:07;16.63;;;7.15;;
23304;SDS011;11821;51.456;8.844;2022-12-18T05:12:33;15.70;;;7.72;;
23304;SDS011;11821;51.456;8.844;2022-12-18T05:15:20;18.40;;;7.38;;
23304;SDS011;11821;51.456;8.844;2022-12-18T05:17:47;20.83;;;8.50;;
23304;SDS011;11821;51.456;8.844;2022-12-18T05:20:13;16.60;;;8.80;;
23304;SDS011;11821;51.456;8.844;2022-12-18T05:22:40;15.07;;;8.32;;
23304;SDS011;11821;51.456;8.844;2022-12-18T05:25:07;18.42;;;8.30;;
23304;SDS011;11821;51.456;8.844;2022-12-18T05:27:33;22.02;;;8.98;;
23304;SDS011;11821;51.456;8.844;2022-12-18T05:30:00;17.80;;;8.90;;
23304;SDS011;11821;51.456;8.844;2022-12-18T05:32:27;16.38;;;7.65;;
23304;SDS011;11821;51.456;8.844;2022-12-18T05:34:53;17.08;;;9.07;;
23304;SDS011;11821;51.456;8.844;2022-12-18T05:37:22;14.45;;;8.50;;
23304;SDS011;11821;51.456;8.844;2022-12-18T05:39:49;16.15;;;8.80;;
23304;SDS011;11821;51.456;8.844;2022-12-18T05:42:15;14.15;;;7.90;;
23304;SDS011;11821;51.456;8.844;2022-12-18T05:44:43;17.77;;;8.52;;
23304;SDS011;11821;51.456;8.844;2022-12-18T05:47:09;18.25;;;7.93;;
23304;SDS011;11821;51.456;8.844;2022-12-18T05:49:36;14.98;;;7.95;;
23304;SDS011;11821;51.456;8.844;2022-12-18T05:52:03;17.90;;;8.52;;
23304;SDS011;11821;51.456;8.844;2022-12-18T05:54:29;14.95;;;8.00;;
23304;SDS011;11821;51.456;8.844;2022-12-18T05:56:57;16.80;;;7.88;;
23304;SDS011;11821;51.456;8.844;2022-12-18T05:59:23;15.15;;;8.80;;
23304;SDS011;11821;51.456;8.844;2022-12-18T06:01:50;18.02;;;9.38;;
23304;SDS011;11821;51.456;8.844;2022-12-18T06:04:17;11.90;;;6.88;;
23304;SDS011;11821;51.456;8.844;2022-12-18T06:06:43;20.20;;;8.68;;
23304;SDS011;11821;51.456;8.844;2022-12-18T06:09:10;18.25;;;8.18;;
23304;SDS011;11821;51.456;8.844;2022-12-18T06:11:37;12.38;;;6.70;;
23304;SDS011;11821;51.456;8.844;2022-12-18T06:14:05;13.55;;;7.60;;
23304;SDS011;11821;51.456;8.844;2022-12-18T06:16:32;14.90;;;7.90;;
23304;SDS011;11821;51.456;8.844;2022-12-18T06:18:59;15.13;;;7.72;;
23304;SDS011;11821;51.456;8.844;2022-12-18T06:21:26;16.48;;;7.65;;
23304;SDS011;11821;51.456;8.844;2022-12-18T06:23:53;13.85;;;7.75;;
23304;SDS011;11821;51.456;8.844;2022-12-18T06:26:19;17.42;;;8.00;;
23304;SDS011;11821;51.456;8.844;2022-12-18T06:28:46;13.05;;;7.88;;
23304;SDS011;11821;51.456;8.844;2022-12-18T06:31:12;16.95;;;6.90;;
23304;SDS011;11821;51.456;8.844;2022-12-18T06:33:39;15.00;;;7.35;;
23304;SDS011;11821;51.456;8.844;2022-12-18T06:36:07;15.18;;;7.25;;
23304;SDS011;11821;51.456;8.844;2022-12-18T06:38:34;14.52;;;7.63;;
23304;SDS011;11821;51.456;8.844;2022-12-18T06:41:05;15.25;;;8.13;;
23304;SDS011;11821;51.456;8.844;2022-12-18T06:43:32;15.82;;;9.18;;
23304;SDS011;11821;51.456;8.844;2022-12-18T06:45:59;21.73;;;10.43;;
23304;SDS011;11821;51.456;8.844;2022-12-18T06:48:26;17.73;;;9.27;;
23304;SDS011;11821;51.456;8.844;2022-12-18T06:50:52;23.83;;;9.07;;
23304;SDS011;11821;51.456;8.844;2022-12-18T06:53:19;16.35;;;9.00;;
23304;SDS011;11821;51.456;8.844;2022-12-18T06:55:45;25.33;;;10.57;;
23304;SDS011;11821;51.456;8.844;2022-12-18T06:58:12;20.45;;;8.93;;
23304;SDS011;11821;51.456;8.844;2022-12-18T07:00:39;23.95;;;12.27;;
23304;SDS011;11821;51.456;8.844;2022-12-18T07:03:05;42.72;;;15.20;;
23304;SDS011;11821;51.456;8.844;2022-12-18T07:05:32;22.38;;;10.75;;
23304;SDS011;11821;51.456;8.844;2022-12-18T07:07:59;53.42;;;19.35;;
23304;SDS011;11821;51.456;8.844;2022-12-18T07:10:25;57.92;;;21.92;;
23304;SDS011;11821;51.456;8.844;2022-12-18T07:12:52;49.63;;;22.15;;
23304;SDS011;11821;51.456;8.844;2022-12-18T07:15:19;47.17;;;21.40;;
23304;SDS011;11821;51.456;8.844;2022-12-18T07:17:45;45.33;;;20.77;;
23304;SDS011;11821;51.456;8.844;2022-12-18T07:20:12;35.92;;;17.38;;
23304;SDS011;11821;51.456;8.844;2022-12-18T07:22:38;23.23;;;10.85;;
23304;SDS011;11821;51.456;8.844;2022-12-18T07:25:05;37.70;;;13.48;;
23304;SDS011;11821;51.456;8.844;2022-12-18T07:27:32;62.30;;;23.17;;
23304;SDS011;11821;51.456;8.844;2022-12-18T07:29:59;35.97;;;14.02;;
23304;SDS011;11821;51.456;8.844;2022-12-18T07:32:25;68.32;;;24.27;;
23304;SDS011;11821;51.456;8.844;2022-12-18T07:34:52;64.35;;;22.30;;
23304;SDS011;11821;51.456;8.844;2022-12-18T07:37:19;41.00;;;14.20;;
23304;SDS011;11821;51.456;8.844;2022-12-18T07:39:45;50.10;;;16.00;;
23304;SDS011;11821;51.456;8.844;2022-12-18T07:42:12;44.83;;;15.52;;
23304;SDS011;11821;51.456;8.844;2022-12-18T07:44:57;28.38;;;12.38;;
23304;SDS011;11821;51.456;8.844;2022-12-18T07:47:24;29.55;;;12.35;;
23304;SDS011;11821;51.456;8.844;2022-12-18T07:49:50;25.83;;;11.40;;
23304;SDS011;11821;51.456;8.844;2022-12-18T07:52:17;22.10;;;10.38;;
23304;SDS011;11821;51.456;8.844;2022-12-18T07:54:43;28.30;;;10.98;;
23304;SDS011;11821;51.456;8.844;2022-12-18T07:57:10;28.05;;;10.45;;
23304;SDS011;11821;51.456;8.844;2022-12-18T07:59:37;19.98;;;8.88;;
23304;SDS011;11821;51.456;8.844;2022-12-18T08:02:03;23.38;;;10.88;;
23304;SDS011;11821;51.456;8.844;2022-12-18T08:04:30;18.13;;;9.95;;
23304;SDS011;11821;51.456;8.844;2022-12-18T08:06:57;35.65;;;13.80;;
23304;SDS011;11821;51.456;8.844;2022-12-18T08:09:23;32.25;;;12.45;;
23304;SDS011;11821;51.456;8.844;2022-12-18T08:11:50;30.00;;;13.13;;
23304;SDS011;11821;51.456;8.844;2022-12-18T08:14:16;43.00;;;16.80;;
23304;SDS011;11821;51.456;8.844;2022-12-18T08:16:43;47.35;;;16.73;;
23304;SDS011;11821;51.456;8.844;2022-12-18T08:19:09;39.17;;;15.02;;
23304;SDS011;11821;51.456;8.844;2022-12-18T08:21:36;28.92;;;12.40;;
23304;SDS011;11821;51.456;8.844;2022-12-18T08:24:03;20.05;;;10.90;;
23304;SDS011;11821;51.456;8.844;2022-12-18T08:26:30;26.30;;;11.00;;
23304;SDS011;11821;51.456;8.844;2022-12-18T08:28:57;21.23;;;10.13;;
23304;SDS011;11821;51.456;8.844;2022-12-18T08:31:24;25.23;;;11.27;;
23304;SDS011;11821;51.456;8.844;2022-12-18T08:33:51;42.05;;;17.67;;
23304;SDS011;11821;51.456;8.844;2022-12-18T08:36:18;48.08;;;18.45;;
23304;SDS011;11821;51.456;8.844;2022-12-18T08:38:45;47.38;;;21.02;;
23304;SDS011;11821;51.456;8.844;2022-12-18T08:41:13;36.22;;;17.67;;
23304;SDS011;11821;51.456;8.844;2022-12-18T08:43:40;19.50;;;10.98;;
23304;SDS011;11821;51.456;8.844;2022-12-18T08:46:26;16.40;;;9.55;;
23304;SDS011;11821;51.456;8.844;2022-12-18T08:48:54;28.15;;;12.95;;
23304;SDS011;11821;51.456;8.844;2022-12-18T08:51:21;25.70;;;12.45;;
23304;SDS011;11821;51.456;8.844;2022-12-18T08:53:48;24.02;;;12.32;;
23304;SDS011;11821;51.456;8.844;2022-12-18T08:56:15;53.03;;;21.98;;
23304;SDS011;11821;51.456;8.844;2022-12-18T08:58:42;33.50;;;14.52;;
23304;SDS011;11821;51.456;8.844;2022-12-18T09:01:09;25.42;;;13.00;;
23304;SDS011;11821;51.456;8.844;2022-12-18T09:03:36;26.20;;;12.50;;
23304;SDS011;11821;51.456;8.844;2022-12-18T09:06:03;22.70;;;11.23;;
23304;SDS011;11821;51.456;8.844;2022-12-18T09:08:30;21.45;;;10.75;;
23304;SDS011;11821;51.456;8.844;2022-12-18T09:10:56;19.70;;;10.48;;
23304;SDS011;11821;51.456;8.844;2022-12-18T09:13:23;23.42;;;11.20;;
23304;SDS011;11821;51.456;8.844;2022-12-18T09:15:51;24.40;;;11.38;;
23304;SDS011;11821;51.456;8.844;2022-12-18T09:18:19;22.05;;;12.10;;
23304;SDS011;11821;51.456;8.844;2022-12-18T09:20:45;27.35;;;12.93;;
23304;SDS011;11821;51.456;8.844;2022-12-18T09:23:12;32.20;;;16.00;;
23304;SDS011;11821;51.456;8.844;2022-12-18T09:25:39;27.73;;;14.32;;
23304;SDS011;11821;51.456;8.844;2022-12-18T09:28:09;33.03;;;14.60;;
23304;SDS011;11821;51.456;8.844;2022-12-18T09:30:37;25.85;;;14.63;;
23304;SDS011;11821;51.456;8.844;2022-12-18T09:33:04;29.00;;;14.10;;
23304;SDS011;11821;51.456;8.844;2022-12-18T09:35:30;26.13;;;14.25;;
23304;SDS011;11821;51.456;8.844;2022-12-18T09:37:57;38.25;;;14.65;;
23304;SDS011;11821;51.456;8.844;2022-12-18T09:40:25;32.40;;;15.35;;
23304;SDS011;11821;51.456;8.844;2022-12-18T09:42:54;33.08;;;16.15;;
23304;SDS011;11821;51.456;8.844;2022-12-18T09:45:21;36.70;;;16.70;;
23304;SDS011;11821;51.456;8.844;2022-12-18T09:47:49;38.55;;;17.85;;
23304;SDS011;11821;51.456;8.844;2022-12-18T09:50:22;35.55;;;17.80;;
23304;SDS011;11821;51.456;8.844;2022-12-18T09:52:51;34.35;;;17.10;;
23304;SDS011;11821;51.456;8.844;2022-12-18T09:55:28;27.45;;;14.82;;
23304;SDS011;11821;51.456;8.844;2022-12-18T09:57:59;28.25;;;15.23;;
23304;SDS011;11821;51.456;8.844;2022-12-18T10:00:27;23.65;;;13.73;;
23304;SDS011;11821;51.456;8.844;2022-12-18T10:02:59;27.40;;;15.68;;
23304;SDS011;11821;51.456;8.844;2022-12-18T10:08:32;29.27;;;15.35;;
23304;SDS011;11821;51.456;8.844;2022-12-18T10:10:53;27.77;;;14.25;;
23304;SDS011;11821;51.456;8.844;2022-12-18T10:18:30;27.98;;;14.98;;
23304;SDS011;11821;51.456;8.844;2022-12-18T10:21:08;27.20;;;14.10;;
23304;SDS011;11821;51.456;8.844;2022-12-18T10:26:12;33.60;;;15.95;;
23304;SDS011;11821;51.456;8.844;2022-12-18T10:28:39;28.40;;;15.23;;
23304;SDS011;11821;51.456;8.844;2022-12-18T10:31:07;33.78;;;16.30;;
23304;SDS011;11821;51.456;8.844;2022-12-18T10:33:33;24.73;;;14.90;;
23304;SDS011;11821;51.456;8.844;2022-12-18T10:36:00;29.10;;;15.13;;
23304;SDS011;11821;51.456;8.844;2022-12-18T10:38:29;24.67;;;14.35;;
23304;SDS011;11821;51.456;8.844;2022-12-18T10:43:25;36.05;;;16.98;;
23304;SDS011;11821;51.456;8.844;2022-12-18T10:48:25;29.65;;;16.13;;
23304;SDS011;11821;51.456;8.844;2022-12-18T10:50:52;30.35;;;16.48;;
23304;SDS011;11821;51.456;8.844;2022-12-18T10:53:29;30.60;;;16.67;;
23304;SDS011;11821;51.456;8.844;2022-12-18T10:55:58;25.67;;;15.05;;
23304;SDS011;11821;51.456;8.844;2022-12-18T11:06:11;28.98;;;17.10;;
23304;SDS011;11821;51.456;8.844;2022-12-18T11:08:38;28.40;;;17.00;;
23304;SDS011;11821;51.456;8.844;2022-12-18T11:11:07;31.30;;;15.98;;
23304;SDS011;11821;51.456;8.844;2022-12-18T11:13:33;26.55;;;15.00;;
23304;SDS011;11821;51.456;8.844;2022-12-18T11:16:00;27.85;;;14.70;;
23304;SDS011;11821;51.456;8.844;2022-12-18T11:18:31;23.00;;;12.00;;
23304;SDS011;11821;51.456;8.844;2022-12-18T11:23:25;8.30;;;5.82;;
23304;SDS011;11821;51.456;8.844;2022-12-18T11:25:53;13.07;;;8.55;;
23304;SDS011;11821;51.456;8.844;2022-12-18T11:31:08;11.93;;;7.35;;
23304;SDS011;11821;51.456;8.844;2022-12-18T11:33:35;11.30;;;8.02;;
23304;SDS011;11821;51.456;8.844;2022-12-18T11:36:03;15.30;;;7.15;;
23304;SDS011;11821;51.456;8.844;2022-12-18T11:38:32;10.85;;;7.40;;
23304;SDS011;11821;51.456;8.844;2022-12-18T11:43:48;7.65;;;5.47;;
23304;SDS011;11821;51.456;8.844;2022-12-18T11:46:39;7.68;;;5.63;;
23304;SDS011;11821;51.456;8.844;2022-12-18T11:49:22;10.82;;;7.70;;
23304;SDS011;11821;51.456;8.844;2022-12-18T11:54:17;7.35;;;5.13;;
23304;SDS011;11821;51.456;8.844;2022-12-18T11:56:51;8.63;;;5.63;;
23304;SDS011;11821;51.456;8.844;2022-12-18T12:01:59;39.03;;;18.73;;
23304;SDS011;11821;51.456;8.844;2022-12-18T12:14:40;9.27;;;6.90;;
23304;SDS011;11821;51.456;8.844;2022-12-18T12:40:07;9.52;;;7.63;;
23304;SDS011;11821;51.456;8.844;2022-12-18T12:43:40;9.07;;;6.65;;
23304;SDS011;11821;51.456;8.844;2022-12-18T12:48:58;10.60;;;6.15;;
23304;SDS011;11821;51.456;8.844;2022-12-18T12:51:10;8.13;;;5.45;;
23304;SDS011;11821;51.456;8.844;2022-12-18T12:53:37;8.13;;;6.05;;
23304;SDS011;11821;51.456;8.844;2022-12-18T12:56:05;11.63;;;7.93;;
23304;SDS011;11821;51.456;8.844;2022-12-18T13:03:43;9.45;;;5.60;;
23304;SDS011;11821;51.456;8.844;2022-12-18T13:06:13;8.63;;;6.22;;
23304;SDS011;11821;51.456;8.844;2022-12-18T13:08:53;10.50;;;6.80;;
23304;SDS011;11821;51.456;8.844;2022-12-18T13:19:42;14.40;;;9.52;;
23304;SDS011;11821;51.456;8.844;2022-12-18T13:22:22;14.10;;;9.30;;
23304;SDS011;11821;51.456;8.844;2022-12-18T13:24:49;20.42;;;14.27;;
23304;SDS011;11821;51.456;8.844;2022-12-18T13:30:02;10.95;;;9.18;;
23304;SDS011;11821;51.456;8.844;2022-12-18T13:32:28;8.95;;;7.65;;
23304;SDS011;11821;51.456;8.844;2022-12-18T13:37:43;19.42;;;12.40;;
23304;SDS011;11821;51.456;8.844;2022-12-18T13:43:13;8.70;;;5.30;;
23304;SDS011;11821;51.456;8.844;2022-12-18T13:45:41;7.88;;;5.15;;
23304;SDS011;11821;51.456;8.844;2022-12-18T13:48:14;13.73;;;8.95;;
23304;SDS011;11821;51.456;8.844;2022-12-18T13:50:41;11.30;;;7.38;;
23304;SDS011;11821;51.456;8.844;2022-12-18T13:53:15;10.02;;;7.20;;
23304;SDS011;11821;51.456;8.844;2022-12-18T13:55:46;16.85;;;11.50;;
23304;SDS011;11821;51.456;8.844;2022-12-18T13:58:13;9.45;;;6.40;;
23304;SDS011;11821;51.456;8.844;2022-12-18T14:00:43;13.43;;;8.77;;
23304;SDS011;11821;51.456;8.844;2022-12-18T14:03:20;8.07;;;6.10;;
23304;SDS011;11821;51.456;8.844;2022-12-18T14:05:51;9.23;;;5.95;;
23304;SDS011;11821;51.456;8.844;2022-12-18T14:08:18;9.98;;;7.13;;
23304;SDS011;11821;51.456;8.844;2022-12-18T14:10:45;9.63;;;6.60;;
23304;SDS011;11821;51.456;8.844;2022-12-18T14:13:15;10.25;;;6.55;;
23304;SDS011;11821;51.456;8.844;2022-12-18T14:15:45;11.95;;;6.30;;
23304;SDS011;11821;51.456;8.844;2022-12-18T14:20:48;13.02;;;8.98;;
23304;SDS011;11821;51.456;8.844;2022-12-18T14:25:54;10.77;;;6.75;;
23304;SDS011;11821;51.456;8.844;2022-12-18T14:28:20;10.55;;;7.13;;
23304;SDS011;11821;51.456;8.844;2022-12-18T14:30:51;9.85;;;5.80;;
23304;SDS011;11821;51.456;8.844;2022-12-18T14:33:22;8.15;;;5.68;;
23304;SDS011;11821;51.456;8.844;2022-12-18T14:36:13;5.37;;;4.37;;
23304;SDS011;11821;51.456;8.844;2022-12-18T14:38:39;9.77;;;6.80;;
23304;SDS011;11821;51.456;8.844;2022-12-18T14:41:10;8.98;;;5.88;;
23304;SDS011;11821;51.456;8.844;2022-12-18T14:43:38;7.18;;;4.72;;
23304;SDS011;11821;51.456;8.844;2022-12-18T14:46:05;10.65;;;6.60;;
23304;SDS011;11821;51.456;8.844;2022-12-18T14:48:37;12.82;;;7.03;;
23304;SDS011;11821;51.456;8.844;2022-12-18T14:51:06;14.65;;;8.48;;
23304;SDS011;11821;51.456;8.844;2022-12-18T14:53:34;12.65;;;7.88;;
23304;SDS011;11821;51.456;8.844;2022-12-18T14:56:01;9.68;;;7.03;;
23304;SDS011;11821;51.456;8.844;2022-12-18T14:58:28;10.77;;;6.72;;
23304;SDS011;11821;51.456;8.844;2022-12-18T15:00:55;9.68;;;7.38;;
23304;SDS011;11821;51.456;8.844;2022-12-18T15:03:21;12.25;;;7.65;;
23304;SDS011;11821;51.456;8.844;2022-12-18T15:05:48;13.75;;;7.93;;
23304;SDS011;11821;51.456;8.844;2022-12-18T15:11:33;13.50;;;7.30;;
23304;SDS011;11821;51.456;8.844;2022-12-18T15:14:03;11.98;;;8.68;;
23304;SDS011;11821;51.456;8.844;2022-12-18T15:16:49;11.80;;;7.82;;
23304;SDS011;11821;51.456;8.844;2022-12-18T15:19:16;13.52;;;8.20;;
23304;SDS011;11821;51.456;8.844;2022-12-18T15:21:44;15.45;;;9.80;;
23304;SDS011;11821;51.456;8.844;2022-12-18T15:24:22;12.05;;;8.98;;
23304;SDS011;11821;51.456;8.844;2022-12-18T15:26:50;12.95;;;9.05;;
23304;SDS011;11821;51.456;8.844;2022-12-18T15:29:19;12.48;;;8.25;;
23304;SDS011;11821;51.456;8.844;2022-12-18T15:32:10;14.15;;;8.93;;
23304;SDS011;11821;51.456;8.844;2022-12-18T15:34:42;15.10;;;9.65;;
23304;SDS011;11821;51.456;8.844;2022-12-18T15:37:08;13.88;;;9.30;;
23304;SDS011;11821;51.456;8.844;2022-12-18T15:39:35;15.05;;;9.60;;
23304;SDS011;11821;51.456;8.844;2022-12-18T15:42:02;15.25;;;10.50;;
23304;SDS011;11821;51.456;8.844;2022-12-18T15:44:47;17.80;;;9.90;;
23304;SDS011;11821;51.456;8.844;2022-12-18T15:47:14;19.42;;;11.90;;
23304;SDS011;11821;51.456;8.844;2022-12-18T15:49:40;22.40;;;11.35;;
23304;SDS011;11821;51.456;8.844;2022-12-18T15:52:08;25.70;;;11.25;;
23304;SDS011;11821;51.456;8.844;2022-12-18T15:54:38;22.25;;;12.23;;
23304;SDS011;11821;51.456;8.844;2022-12-18T15:57:23;19.48;;;11.70;;
23304;SDS011;11821;51.456;8.844;2022-12-18T15:59:54;18.77;;;10.57;;
23304;SDS011;11821;51.456;8.844;2022-12-18T16:02:23;21.15;;;10.95;;
23304;SDS011;11821;51.456;8.844;2022-12-18T16:04:51;24.95;;;13.45;;
23304;SDS011;11821;51.456;8.844;2022-12-18T16:07:19;22.85;;;12.68;;
23304;SDS011;11821;51.456;8.844;2022-12-18T16:09:46;24.05;;;13.40;;
23304;SDS011;11821;51.456;8.844;2022-12-18T16:12:17;25.50;;;13.48;;
23304;SDS011;11821;51.456;8.844;2022-12-18T16:14:45;23.40;;;13.38;;
23304;SDS011;11821;51.456;8.844;2022-12-18T16:17:12;23.45;;;12.98;;
23304;SDS011;11821;51.456;8.844;2022-12-18T16:19:39;22.55;;;12.40;;
23304;SDS011;11821;51.456;8.844;2022-12-18T16:22:19;25.00;;;13.25;;
23304;SDS011;11821;51.456;8.844;2022-12-18T16:24:47;21.75;;;13.38;;
23304;SDS011;11821;51.456;8.844;2022-12-18T16:27:13;21.95;;;13.35;;
23304;SDS011;11821;51.456;8.844;2022-12-18T16:29:40;21.98;;;12.70;;
23304;SDS011;11821;51.456;8.844;2022-12-18T16:32:08;27.42;;;14.52;;
23304;SDS011;11821;51.456;8.844;2022-12-18T16:34:35;27.52;;;13.52;;
23304;SDS011;11821;51.456;8.844;2022-12-18T16:37:03;35.88;;;18.40;;
23304;SDS011;11821;51.456;8.844;2022-12-18T16:39:30;28.08;;;14.55;;
23304;SDS011;11821;51.456;8.844;2022-12-18T16:41:57;29.05;;;14.60;;
23304;SDS011;11821;51.456;8.844;2022-12-18T16:44:24;27.33;;;14.85;;
23304;SDS011;11821;51.456;8.844;2022-12-18T16:46:51;27.05;;;14.45;;
23304;SDS011;11821;51.456;8.844;2022-12-18T16:49:18;31.00;;;15.73;;
23304;SDS011;11821;51.456;8.844;2022-12-18T16:51:45;22.70;;;13.98;;
23304;SDS011;11821;51.456;8.844;2022-12-18T16:54:12;25.63;;;14.80;;
23304;SDS011;11821;51.456;8.844;2022-12-18T16:56:39;27.15;;;14.90;;
23304;SDS011;11821;51.456;8.844;2022-12-18T16:59:09;29.10;;;14.68;;
23304;SDS011;11821;51.456;8.844;2022-12-18T17:01:37;24.23;;;15.05;;